sensor_id;sensor_type;location;lat;lon;timestamp;P1;durP1;ratioP1;P2;durP2;ratioP2
26325;SDS011;14032;52.510;7.342;2023-07-16T00:02:03;11.88;;;3.60;;
26325;SDS011;14032;52.510;7.342;2023-07-16T00:04:31;9.18;;;3.92;;
26325;SDS011;14032;52.510;7.342;2023-07-16T00:06:58;13.00;;;3.67;;
26325;SDS011;14032;52.510;7.342;2023-07-16T00:09:25;6.95;;;4.13;;
26325;SDS011;14032;52.510;7.342;2023-07-16T00:11:50;11.15;;;4.05;;
26325;SDS011;14032;52.510;7.342;2023-07-16T00:14:17;8.25;;;3.70;;
26325;SDS011;14032;52.510;7.342;2023-07-16T00:16:42;7.68;;;3.55;;
26325;SDS011;14032;52.510;7.342;2023-07-16T00:19:10;7.78;;;3.40;;
26325;SDS011;14032;52.510;7.342;2023-07-16T00:21:36;7.93;;;3.67;;
26325;SDS011;14032;52.510;7.342;2023-07-16T00:24:02;10.43;;;3.88;;
26325;SDS011;14032;52.510;7.342;2023-07-16T00:26:28;9.60;;;4.15;;
26325;SDS011;14032;52.510;7.342;2023-07-16T00:28:54;9.07;;;4.15;;
26325;SDS011;14032;52.510;7.342;2023-07-16T00:31:19;10.70;;;4.05;;
26325;SDS011;14032;52.510;7.342;2023-07-16T00:33:45;10.57;;;4.18;;
26325;SDS011;14032;52.510;7.342;2023-07-16T00:36:10;7.15;;;3.95;;
26325;SDS011;14032;52.510;7.342;2023-07-16T00:38:39;8.75;;;3.75;;
26325;SDS011;14032;52.510;7.342;2023-07-16T00:41:06;7.65;;;3.90;;
26325;SDS011;14032;52.510;7.342;2023-07-16T00:43:31;5.65;;;3.30;;
26325;SDS011;14032;52.510;7.342;2023-07-16T00:45:57;7.72;;;3.55;;
26325;SDS011;14032;52.510;7.342;2023-07-16T00:48:23;12.75;;;4.40;;
26325;SDS011;14032;52.510;7.342;2023-07-16T00:50:49;6.28;;;3.50;;
26325;SDS011;14032;52.510;7.342;2023-07-16T00:53:16;12.20;;;4.85;;
26325;SDS011;14032;52.510;7.342;2023-07-16T00:55:43;12.30;;;5.78;;
26325;SDS011;14032;52.510;7.342;2023-07-16T00:58:08;14.07;;;5.10;;
26325;SDS011;14032;52.510;7.342;2023-07-16T01:00:34;10.02;;;4.95;;
26325;SDS011;14032;52.510;7.342;2023-07-16T01:03:02;9.27;;;4.97;;
26325;SDS011;14032;52.510;7.342;2023-07-16T01:05:43;13.93;;;5.65;;
26325;SDS011;14032;52.510;7.342;2023-07-16T01:08:21;9.50;;;5.63;;
26325;SDS011;14032;52.510;7.342;2023-07-16T01:10:57;12.70;;;6.05;;
26325;SDS011;14032;52.510;7.342;2023-07-16T01:13:23;15.32;;;5.80;;
26325;SDS011;14032;52.510;7.342;2023-07-16T01:15:49;12.10;;;5.43;;
26325;SDS011;14032;52.510;7.342;2023-07-16T01:18:15;12.10;;;5.88;;
26325;SDS011;14032;52.510;7.342;2023-07-16T01:20:41;12.35;;;6.00;;
26325;SDS011;14032;52.510;7.342;2023-07-16T01:31:00;10.60;;;4.95;;
26325;SDS011;14032;52.510;7.342;2023-07-16T01:33:26;12.68;;;5.25;;
26325;SDS011;14032;52.510;7.342;2023-07-16T01:35:52;11.13;;;4.80;;
26325;SDS011;14032;52.510;7.342;2023-07-16T01:38:19;10.82;;;4.55;;
26325;SDS011;14032;52.510;7.342;2023-07-16T01:40:46;8.32;;;4.53;;
26325;SDS011;14032;52.510;7.342;2023-07-16T01:43:12;7.45;;;3.92;;
26325;SDS011;14032;52.510;7.342;2023-07-16T01:45:38;9.55;;;4.07;;
26325;SDS011;14032;52.510;7.342;2023-07-16T01:50:48;8.60;;;4.03;;
26325;SDS011;14032;52.510;7.342;2023-07-16T01:53:13;7.93;;;3.50;;
26325;SDS011;14032;52.510;7.342;2023-07-16T01:55:39;10.38;;;3.15;;
26325;SDS011;14032;52.510;7.342;2023-07-16T01:58:04;6.72;;;3.53;;
26325;SDS011;14032;52.510;7.342;2023-07-16T02:00:30;6.72;;;3.20;;
26325;SDS011;14032;52.510;7.342;2023-07-16T02:02:56;7.95;;;3.35;;
26325;SDS011;14032;52.510;7.342;2023-07-16T02:05:21;7.88;;;2.92;;
26325;SDS011;14032;52.510;7.342;2023-07-16T02:07:47;7.90;;;3.20;;
26325;SDS011;14032;52.510;7.342;2023-07-16T02:10:12;6.60;;;2.83;;
26325;SDS011;14032;52.510;7.342;2023-07-16T02:12:38;7.10;;;3.30;;
26325;SDS011;14032;52.510;7.342;2023-07-16T02:15:04;5.15;;;2.70;;
26325;SDS011;14032;52.510;7.342;2023-07-16T02:17:30;11.65;;;3.55;;
26325;SDS011;14032;52.510;7.342;2023-07-16T02:19:55;7.50;;;3.08;;
26325;SDS011;14032;52.510;7.342;2023-07-16T02:22:21;9.45;;;3.58;;
26325;SDS011;14032;52.510;7.342;2023-07-16T02:24:46;7.97;;;3.15;;
26325;SDS011;14032;52.510;7.342;2023-07-16T02:27:12;9.52;;;3.20;;
26325;SDS011;14032;52.510;7.342;2023-07-16T02:29:38;6.45;;;2.83;;
26325;SDS011;14032;52.510;7.342;2023-07-16T02:32:04;8.10;;;2.78;;
26325;SDS011;14032;52.510;7.342;2023-07-16T02:34:30;8.13;;;2.80;;
26325;SDS011;14032;52.510;7.342;2023-07-16T02:36:55;5.90;;;2.75;;
26325;SDS011;14032;52.510;7.342;2023-07-16T02:39:21;8.75;;;3.40;;
26325;SDS011;14032;52.510;7.342;2023-07-16T02:41:46;10.05;;;4.13;;
26325;SDS011;14032;52.510;7.342;2023-07-16T02:44:12;7.38;;;3.40;;
26325;SDS011;14032;52.510;7.342;2023-07-16T02:46:37;7.47;;;3.60;;
26325;SDS011;14032;52.510;7.342;2023-07-16T02:49:03;6.00;;;3.67;;
26325;SDS011;14032;52.510;7.342;2023-07-16T02:51:29;6.68;;;3.63;;
26325;SDS011;14032;52.510;7.342;2023-07-16T02:53:55;7.60;;;3.60;;
26325;SDS011;14032;52.510;7.342;2023-07-16T02:56:20;9.10;;;3.88;;
26325;SDS011;14032;52.510;7.342;2023-07-16T02:58:46;6.97;;;3.97;;
26325;SDS011;14032;52.510;7.342;2023-07-16T03:01:12;9.68;;;4.50;;
26325;SDS011;14032;52.510;7.342;2023-07-16T03:03:38;14.32;;;5.15;;
26325;SDS011;14032;52.510;7.342;2023-07-16T03:06:03;7.72;;;3.70;;
26325;SDS011;14032;52.510;7.342;2023-07-16T03:08:29;6.70;;;3.88;;
26325;SDS011;14032;52.510;7.342;2023-07-16T03:10:56;10.68;;;3.65;;
26325;SDS011;14032;52.510;7.342;2023-07-16T03:13:22;8.90;;;3.35;;
26325;SDS011;14032;52.510;7.342;2023-07-16T03:15:48;11.00;;;3.70;;
26325;SDS011;14032;52.510;7.342;2023-07-16T03:18:14;14.75;;;3.65;;
26325;SDS011;14032;52.510;7.342;2023-07-16T03:20:40;7.15;;;3.35;;
26325;SDS011;14032;52.510;7.342;2023-07-16T03:23:06;10.75;;;3.58;;
26325;SDS011;14032;52.510;7.342;2023-07-16T03:25:31;11.40;;;3.78;;
26325;SDS011;14032;52.510;7.342;2023-07-16T03:27:58;14.30;;;3.97;;
26325;SDS011;14032;52.510;7.342;2023-07-16T03:30:24;7.50;;;3.40;;
26325;SDS011;14032;52.510;7.342;2023-07-16T03:32:50;9.20;;;3.08;;
26325;SDS011;14032;52.510;7.342;2023-07-16T03:35:15;7.10;;;3.20;;
26325;SDS011;14032;52.510;7.342;2023-07-16T03:37:41;10.90;;;3.45;;
26325;SDS011;14032;52.510;7.342;2023-07-16T03:40:14;8.95;;;3.72;;
26325;SDS011;14032;52.510;7.342;2023-07-16T03:42:40;13.70;;;3.75;;
26325;SDS011;14032;52.510;7.342;2023-07-16T03:45:06;11.13;;;3.47;;
26325;SDS011;14032;52.510;7.342;2023-07-16T03:47:33;10.68;;;3.58;;
26325;SDS011;14032;52.510;7.342;2023-07-16T03:49:58;8.68;;;3.42;;
26325;SDS011;14032;52.510;7.342;2023-07-16T03:52:24;10.70;;;3.63;;
26325;SDS011;14032;52.510;7.342;2023-07-16T03:54:51;9.43;;;3.45;;
26325;SDS011;14032;52.510;7.342;2023-07-16T03:57:17;11.98;;;4.10;;
26325;SDS011;14032;52.510;7.342;2023-07-16T03:59:42;11.93;;;4.07;;
26325;SDS011;14032;52.510;7.342;2023-07-16T04:02:08;13.57;;;3.58;;
26325;SDS011;14032;52.510;7.342;2023-07-16T04:04:34;8.18;;;3.70;;
26325;SDS011;14032;52.510;7.342;2023-07-16T04:06:59;10.23;;;3.72;;
26325;SDS011;14032;52.510;7.342;2023-07-16T04:09:25;12.40;;;3.72;;
26325;SDS011;14032;52.510;7.342;2023-07-16T04:11:50;11.90;;;3.80;;
26325;SDS011;14032;52.510;7.342;2023-07-16T04:14:16;10.50;;;3.88;;
26325;SDS011;14032;52.510;7.342;2023-07-16T04:16:42;8.55;;;3.10;;
26325;SDS011;14032;52.510;7.342;2023-07-16T04:19:08;8.88;;;2.85;;
26325;SDS011;14032;52.510;7.342;2023-07-16T04:21:34;9.00;;;3.33;;
26325;SDS011;14032;52.510;7.342;2023-07-16T04:24:01;12.27;;;3.25;;
26325;SDS011;14032;52.510;7.342;2023-07-16T04:26:27;13.52;;;3.30;;
26325;SDS011;14032;52.510;7.342;2023-07-16T04:28:53;10.70;;;2.88;;
26325;SDS011;14032;52.510;7.342;2023-07-16T04:31:18;8.98;;;3.38;;
26325;SDS011;14032;52.510;7.342;2023-07-16T04:33:44;9.82;;;3.63;;
26325;SDS011;14032;52.510;7.342;2023-07-16T04:36:09;8.60;;;3.33;;
26325;SDS011;14032;52.510;7.342;2023-07-16T04:38:35;10.50;;;3.30;;
26325;SDS011;14032;52.510;7.342;2023-07-16T04:41:01;8.20;;;3.42;;
26325;SDS011;14032;52.510;7.342;2023-07-16T04:43:26;11.38;;;3.08;;
26325;SDS011;14032;52.510;7.342;2023-07-16T04:45:52;11.32;;;3.10;;
26325;SDS011;14032;52.510;7.342;2023-07-16T04:48:18;7.53;;;2.97;;
26325;SDS011;14032;52.510;7.342;2023-07-16T04:50:43;10.52;;;3.17;;
26325;SDS011;14032;52.510;7.342;2023-07-16T04:53:09;9.25;;;3.08;;
26325;SDS011;14032;52.510;7.342;2023-07-16T04:55:39;8.73;;;2.80;;
26325;SDS011;14032;52.510;7.342;2023-07-16T04:58:05;7.28;;;2.30;;
26325;SDS011;14032;52.510;7.342;2023-07-16T05:00:31;8.30;;;2.67;;
26325;SDS011;14032;52.510;7.342;2023-07-16T05:02:58;8.68;;;2.92;;
26325;SDS011;14032;52.510;7.342;2023-07-16T05:05:23;9.60;;;2.78;;
26325;SDS011;14032;52.510;7.342;2023-07-16T05:07:49;9.18;;;3.45;;
26325;SDS011;14032;52.510;7.342;2023-07-16T05:10:14;8.88;;;2.53;;
26325;SDS011;14032;52.510;7.342;2023-07-16T05:12:40;9.68;;;2.80;;
26325;SDS011;14032;52.510;7.342;2023-07-16T05:15:06;10.65;;;2.67;;
26325;SDS011;14032;52.510;7.342;2023-07-16T05:17:32;7.05;;;2.65;;
26325;SDS011;14032;52.510;7.342;2023-07-16T05:19:57;10.68;;;2.72;;
26325;SDS011;14032;52.510;7.342;2023-07-16T05:22:23;7.30;;;2.63;;
26325;SDS011;14032;52.510;7.342;2023-07-16T05:24:49;8.77;;;3.30;;
26325;SDS011;14032;52.510;7.342;2023-07-16T05:27:14;8.85;;;2.40;;
26325;SDS011;14032;52.510;7.342;2023-07-16T05:29:40;5.70;;;2.40;;
26325;SDS011;14032;52.510;7.342;2023-07-16T05:32:05;11.02;;;2.70;;
26325;SDS011;14032;52.510;7.342;2023-07-16T05:34:31;8.07;;;2.58;;
26325;SDS011;14032;52.510;7.342;2023-07-16T05:36:57;6.18;;;2.53;;
26325;SDS011;14032;52.510;7.342;2023-07-16T05:39:23;10.05;;;3.40;;
26325;SDS011;14032;52.510;7.342;2023-07-16T05:41:48;10.52;;;3.42;;
26325;SDS011;14032;52.510;7.342;2023-07-16T05:44:14;6.20;;;2.88;;
26325;SDS011;14032;52.510;7.342;2023-07-16T05:46:40;10.32;;;3.15;;
26325;SDS011;14032;52.510;7.342;2023-07-16T05:49:05;8.63;;;3.58;;
26325;SDS011;14032;52.510;7.342;2023-07-16T05:51:31;7.00;;;2.97;;
26325;SDS011;14032;52.510;7.342;2023-07-16T05:53:57;6.82;;;3.08;;
26325;SDS011;14032;52.510;7.342;2023-07-16T05:56:22;8.57;;;3.25;;
26325;SDS011;14032;52.510;7.342;2023-07-16T05:58:48;9.48;;;3.38;;
26325;SDS011;14032;52.510;7.342;2023-07-16T06:01:13;8.65;;;3.22;;
26325;SDS011;14032;52.510;7.342;2023-07-16T06:03:39;7.25;;;2.88;;
26325;SDS011;14032;52.510;7.342;2023-07-16T06:06:04;10.18;;;3.58;;
26325;SDS011;14032;52.510;7.342;2023-07-16T06:08:30;10.43;;;3.20;;
26325;SDS011;14032;52.510;7.342;2023-07-16T06:10:56;11.30;;;4.00;;
26325;SDS011;14032;52.510;7.342;2023-07-16T06:13:21;9.65;;;4.05;;
26325;SDS011;14032;52.510;7.342;2023-07-16T06:15:47;12.20;;;4.50;;
26325;SDS011;14032;52.510;7.342;2023-07-16T06:18:13;11.50;;;4.47;;
26325;SDS011;14032;52.510;7.342;2023-07-16T06:20:38;11.90;;;4.20;;
26325;SDS011;14032;52.510;7.342;2023-07-16T06:23:07;10.65;;;4.38;;
26325;SDS011;14032;52.510;7.342;2023-07-16T06:25:33;12.88;;;4.30;;
26325;SDS011;14032;52.510;7.342;2023-07-16T06:27:58;13.50;;;4.35;;
26325;SDS011;14032;52.510;7.342;2023-07-16T06:30:24;13.07;;;4.38;;
26325;SDS011;14032;52.510;7.342;2023-07-16T06:32:51;9.52;;;4.40;;
26325;SDS011;14032;52.510;7.342;2023-07-16T06:35:16;12.98;;;5.00;;
26325;SDS011;14032;52.510;7.342;2023-07-16T06:37:42;13.32;;;4.82;;
26325;SDS011;14032;52.510;7.342;2023-07-16T06:40:07;10.95;;;4.45;;
26325;SDS011;14032;52.510;7.342;2023-07-16T06:42:33;11.75;;;4.40;;
26325;SDS011;14032;52.510;7.342;2023-07-16T06:44:59;9.10;;;4.28;;
26325;SDS011;14032;52.510;7.342;2023-07-16T06:47:24;10.25;;;4.55;;
26325;SDS011;14032;52.510;7.342;2023-07-16T06:49:51;11.57;;;5.15;;
26325;SDS011;14032;52.510;7.342;2023-07-16T06:52:20;13.48;;;4.70;;
26325;SDS011;14032;52.510;7.342;2023-07-16T06:54:47;12.13;;;4.65;;
26325;SDS011;14032;52.510;7.342;2023-07-16T06:57:13;12.50;;;4.68;;
26325;SDS011;14032;52.510;7.342;2023-07-16T06:59:38;14.50;;;5.30;;
26325;SDS011;14032;52.510;7.342;2023-07-16T07:02:04;13.32;;;4.97;;
26325;SDS011;14032;52.510;7.342;2023-07-16T07:04:33;11.52;;;5.15;;
26325;SDS011;14032;52.510;7.342;2023-07-16T07:07:02;10.68;;;5.03;;
26325;SDS011;14032;52.510;7.342;2023-07-16T07:09:27;11.23;;;5.07;;
26325;SDS011;14032;52.510;7.342;2023-07-16T07:11:53;10.48;;;5.07;;
26325;SDS011;14032;52.510;7.342;2023-07-16T07:14:18;10.00;;;5.03;;
26325;SDS011;14032;52.510;7.342;2023-07-16T07:16:44;12.23;;;5.60;;
26325;SDS011;14032;52.510;7.342;2023-07-16T07:19:09;14.30;;;5.40;;
26325;SDS011;14032;52.510;7.342;2023-07-16T07:21:35;15.02;;;5.35;;
26325;SDS011;14032;52.510;7.342;2023-07-16T07:24:00;12.73;;;5.57;;
26325;SDS011;14032;52.510;7.342;2023-07-16T07:26:27;11.27;;;4.95;;
26325;SDS011;14032;52.510;7.342;2023-07-16T07:28:53;16.30;;;5.32;;
26325;SDS011;14032;52.510;7.342;2023-07-16T07:31:19;12.70;;;5.70;;
26325;SDS011;14032;52.510;7.342;2023-07-16T07:33:44;10.48;;;6.13;;
26325;SDS011;14032;52.510;7.342;2023-07-16T07:36:10;11.82;;;5.43;;
26325;SDS011;14032;52.510;7.342;2023-07-16T07:38:35;13.27;;;5.45;;
26325;SDS011;14032;52.510;7.342;2023-07-16T07:41:04;17.55;;;5.22;;
26325;SDS011;14032;52.510;7.342;2023-07-16T07:43:31;8.13;;;4.75;;
26325;SDS011;14032;52.510;7.342;2023-07-16T07:45:56;13.93;;;4.47;;
26325;SDS011;14032;52.510;7.342;2023-07-16T07:48:22;11.75;;;5.28;;
26325;SDS011;14032;52.510;7.342;2023-07-16T07:50:47;11.27;;;4.82;;
26325;SDS011;14032;52.510;7.342;2023-07-16T07:53:13;9.45;;;4.90;;
26325;SDS011;14032;52.510;7.342;2023-07-16T07:55:40;9.95;;;4.38;;
26325;SDS011;14032;52.510;7.342;2023-07-16T07:58:07;12.45;;;4.70;;
26325;SDS011;14032;52.510;7.342;2023-07-16T08:00:33;10.18;;;5.15;;
26325;SDS011;14032;52.510;7.342;2023-07-16T08:02:58;13.63;;;5.40;;
26325;SDS011;14032;52.510;7.342;2023-07-16T08:05:24;12.80;;;5.38;;
26325;SDS011;14032;52.510;7.342;2023-07-16T08:07:50;14.90;;;4.30;;
26325;SDS011;14032;52.510;7.342;2023-07-16T08:10:16;11.18;;;4.13;;
26325;SDS011;14032;52.510;7.342;2023-07-16T08:12:42;9.23;;;4.30;;
26325;SDS011;14032;52.510;7.342;2023-07-16T08:15:08;8.25;;;4.65;;
26325;SDS011;14032;52.510;7.342;2023-07-16T08:17:38;12.50;;;4.50;;
26325;SDS011;14032;52.510;7.342;2023-07-16T08:20:05;16.20;;;4.53;;
26325;SDS011;14032;52.510;7.342;2023-07-16T08:22:32;8.35;;;4.15;;
26325;SDS011;14032;52.510;7.342;2023-07-16T08:24:57;13.75;;;4.85;;
26325;SDS011;14032;52.510;7.342;2023-07-16T08:27:23;9.02;;;4.38;;
26325;SDS011;14032;52.510;7.342;2023-07-16T08:29:49;12.23;;;4.78;;
26325;SDS011;14032;52.510;7.342;2023-07-16T08:32:14;9.32;;;4.32;;
26325;SDS011;14032;52.510;7.342;2023-07-16T08:34:40;11.02;;;4.13;;
26325;SDS011;14032;52.510;7.342;2023-07-16T08:37:05;11.40;;;4.30;;
26325;SDS011;14032;52.510;7.342;2023-07-16T08:39:31;11.32;;;4.22;;
26325;SDS011;14032;52.510;7.342;2023-07-16T08:41:57;10.52;;;4.55;;
26325;SDS011;14032;52.510;7.342;2023-07-16T08:44:23;10.73;;;4.20;;
26325;SDS011;14032;52.510;7.342;2023-07-16T08:46:49;11.40;;;3.85;;
26325;SDS011;14032;52.510;7.342;2023-07-16T08:49:17;9.98;;;4.35;;
26325;SDS011;14032;52.510;7.342;2023-07-16T08:51:49;11.07;;;4.00;;
26325;SDS011;14032;52.510;7.342;2023-07-16T08:54:15;8.40;;;3.92;;
26325;SDS011;14032;52.510;7.342;2023-07-16T08:56:42;14.43;;;4.50;;
26325;SDS011;14032;52.510;7.342;2023-07-16T08:59:09;8.45;;;3.65;;
26325;SDS011;14032;52.510;7.342;2023-07-16T09:01:35;12.80;;;4.05;;
26325;SDS011;14032;52.510;7.342;2023-07-16T09:04:02;12.98;;;4.50;;
26325;SDS011;14032;52.510;7.342;2023-07-16T09:06:28;8.63;;;3.80;;
26325;SDS011;14032;52.510;7.342;2023-07-16T09:08:54;7.78;;;3.58;;
26325;SDS011;14032;52.510;7.342;2023-07-16T09:11:21;11.77;;;3.85;;
26325;SDS011;14032;52.510;7.342;2023-07-16T09:13:50;8.98;;;4.07;;
26325;SDS011;14032;52.510;7.342;2023-07-16T09:16:19;8.20;;;3.88;;
26325;SDS011;14032;52.510;7.342;2023-07-16T09:18:46;8.10;;;4.07;;
26325;SDS011;14032;52.510;7.342;2023-07-16T09:21:12;7.00;;;3.75;;
26325;SDS011;14032;52.510;7.342;2023-07-16T09:23:37;7.65;;;3.58;;
26325;SDS011;14032;52.510;7.342;2023-07-16T09:26:03;9.65;;;3.80;;
26325;SDS011;14032;52.510;7.342;2023-07-16T09:28:32;11.00;;;4.00;;
26325;SDS011;14032;52.510;7.342;2023-07-16T09:31:05;6.53;;;3.45;;
26325;SDS011;14032;52.510;7.342;2023-07-16T09:33:31;10.18;;;4.13;;
26325;SDS011;14032;52.510;7.342;2023-07-16T09:35:57;6.63;;;3.70;;
26325;SDS011;14032;52.510;7.342;2023-07-16T09:38:23;10.10;;;4.30;;
26325;SDS011;14032;52.510;7.342;2023-07-16T09:40:49;9.18;;;3.63;;
26325;SDS011;14032;52.510;7.342;2023-07-16T09:43:17;8.00;;;4.28;;
26325;SDS011;14032;52.510;7.342;2023-07-16T09:45:43;10.90;;;4.32;;
26325;SDS011;14032;52.510;7.342;2023-07-16T09:48:08;8.63;;;3.60;;
26325;SDS011;14032;52.510;7.342;2023-07-16T09:50:34;11.23;;;4.25;;
26325;SDS011;14032;52.510;7.342;2023-07-16T09:53:01;6.97;;;3.92;;
26325;SDS011;14032;52.510;7.342;2023-07-16T09:55:28;11.00;;;3.78;;
26325;SDS011;14032;52.510;7.342;2023-07-16T09:57:57;7.15;;;3.90;;
26325;SDS011;14032;52.510;7.342;2023-07-16T10:00:26;9.02;;;3.85;;
26325;SDS011;14032;52.510;7.342;2023-07-16T10:02:53;8.48;;;3.95;;
26325;SDS011;14032;52.510;7.342;2023-07-16T10:05:23;8.52;;;4.07;;
26325;SDS011;14032;52.510;7.342;2023-07-16T10:07:51;11.10;;;4.38;;
26325;SDS011;14032;52.510;7.342;2023-07-16T10:10:18;9.27;;;4.60;;
26325;SDS011;14032;52.510;7.342;2023-07-16T10:12:55;9.73;;;4.75;;
26325;SDS011;14032;52.510;7.342;2023-07-16T10:15:28;9.75;;;4.28;;
26325;SDS011;14032;52.510;7.342;2023-07-16T10:17:54;14.98;;;4.40;;
26325;SDS011;14032;52.510;7.342;2023-07-16T10:20:31;10.70;;;4.13;;
26325;SDS011;14032;52.510;7.342;2023-07-16T10:22:58;12.90;;;4.32;;
26325;SDS011;14032;52.510;7.342;2023-07-16T10:25:34;11.38;;;4.75;;
26325;SDS011;14032;52.510;7.342;2023-07-16T10:28:00;9.82;;;4.45;;
26325;SDS011;14032;52.510;7.342;2023-07-16T10:30:25;10.25;;;4.45;;
26325;SDS011;14032;52.510;7.342;2023-07-16T10:32:51;9.73;;;4.78;;
26325;SDS011;14032;52.510;7.342;2023-07-16T10:35:18;10.70;;;4.28;;
26325;SDS011;14032;52.510;7.342;2023-07-16T10:37:44;6.25;;;4.10;;
26325;SDS011;14032;52.510;7.342;2023-07-16T10:40:10;13.48;;;5.03;;
26325;SDS011;14032;52.510;7.342;2023-07-16T10:42:40;11.82;;;5.03;;
26325;SDS011;14032;52.510;7.342;2023-07-16T10:45:07;8.65;;;4.30;;
26325;SDS011;14032;52.510;7.342;2023-07-16T10:47:34;11.07;;;4.75;;
26325;SDS011;14032;52.510;7.342;2023-07-16T10:50:08;12.80;;;4.75;;
26325;SDS011;14032;52.510;7.342;2023-07-16T10:52:35;9.95;;;4.32;;
26325;SDS011;14032;52.510;7.342;2023-07-16T10:55:02;9.88;;;3.75;;
26325;SDS011;14032;52.510;7.342;2023-07-16T10:57:29;10.43;;;4.53;;
26325;SDS011;14032;52.510;7.342;2023-07-16T10:59:55;9.27;;;4.30;;
26325;SDS011;14032;52.510;7.342;2023-07-16T11:02:23;8.70;;;4.07;;
26325;SDS011;14032;52.510;7.342;2023-07-16T11:04:50;9.48;;;4.25;;
26325;SDS011;14032;52.510;7.342;2023-07-16T11:07:20;9.02;;;3.88;;
26325;SDS011;14032;52.510;7.342;2023-07-16T11:09:47;8.75;;;4.45;;
26325;SDS011;14032;52.510;7.342;2023-07-16T11:12:20;9.93;;;4.43;;
26325;SDS011;14032;52.510;7.342;2023-07-16T11:14:48;10.02;;;4.03;;
26325;SDS011;14032;52.510;7.342;2023-07-16T11:17:15;7.60;;;3.38;;
26325;SDS011;14032;52.510;7.342;2023-07-16T11:19:44;7.38;;;3.90;;
26325;SDS011;14032;52.510;7.342;2023-07-16T11:22:11;7.72;;;4.07;;
26325;SDS011;14032;52.510;7.342;2023-07-16T11:24:37;11.13;;;4.22;;
26325;SDS011;14032;52.510;7.342;2023-07-16T11:27:17;7.65;;;3.88;;
26325;SDS011;14032;52.510;7.342;2023-07-16T11:35:16;9.23;;;4.00;;
26325;SDS011;14032;52.510;7.342;2023-07-16T11:37:44;8.77;;;4.03;;
26325;SDS011;14032;52.510;7.342;2023-07-16T11:40:11;7.53;;;3.80;;
26325;SDS011;14032;52.510;7.342;2023-07-16T11:42:41;7.63;;;3.75;;
26325;SDS011;14032;52.510;7.342;2023-07-16T11:45:19;7.60;;;4.05;;
26325;SDS011;14032;52.510;7.342;2023-07-16T11:47:48;9.05;;;3.85;;
26325;SDS011;14032;52.510;7.342;2023-07-16T11:50:14;8.68;;;3.80;;
26325;SDS011;14032;52.510;7.342;2023-07-16T11:52:40;7.88;;;3.92;;
26325;SDS011;14032;52.510;7.342;2023-07-16T11:55:06;10.20;;;4.03;;
26325;SDS011;14032;52.510;7.342;2023-07-16T11:57:32;8.40;;;3.88;;
26325;SDS011;14032;52.510;7.342;2023-07-16T11:59:59;11.63;;;4.13;;
26325;SDS011;14032;52.510;7.342;2023-07-16T12:02:25;9.60;;;4.53;;
26325;SDS011;14032;52.510;7.342;2023-07-16T12:04:52;5.78;;;3.33;;
26325;SDS011;14032;52.510;7.342;2023-07-16T12:07:33;8.98;;;3.70;;
26325;SDS011;14032;52.510;7.342;2023-07-16T12:10:06;8.57;;;3.53;;
26325;SDS011;14032;52.510;7.342;2023-07-16T12:12:32;10.77;;;4.43;;
26325;SDS011;14032;52.510;7.342;2023-07-16T12:14:59;9.95;;;4.50;;
26325;SDS011;14032;52.510;7.342;2023-07-16T12:17:25;7.70;;;3.75;;
26325;SDS011;14032;52.510;7.342;2023-07-16T12:19:51;8.45;;;4.30;;
26325;SDS011;14032;52.510;7.342;2023-07-16T12:22:17;9.35;;;4.18;;
26325;SDS011;14032;52.510;7.342;2023-07-16T12:24:43;11.27;;;4.53;;
26325;SDS011;14032;52.510;7.342;2023-07-16T12:27:09;10.38;;;4.53;;
26325;SDS011;14032;52.510;7.342;2023-07-16T12:29:35;11.52;;;4.45;;
26325;SDS011;14032;52.510;7.342;2023-07-16T12:32:00;7.65;;;3.67;;
26325;SDS011;14032;52.510;7.342;2023-07-16T12:34:26;9.60;;;4.03;;
26325;SDS011;14032;52.510;7.342;2023-07-16T12:36:51;7.28;;;3.63;;
26325;SDS011;14032;52.510;7.342;2023-07-16T12:39:19;9.02;;;4.15;;
26325;SDS011;14032;52.510;7.342;2023-07-16T12:41:45;9.90;;;3.78;;
26325;SDS011;14032;52.510;7.342;2023-07-16T12:44:11;10.57;;;3.95;;
26325;SDS011;14032;52.510;7.342;2023-07-16T12:46:37;7.70;;;3.85;;
26325;SDS011;14032;52.510;7.342;2023-07-16T12:49:02;9.55;;;4.03;;
26325;SDS011;14032;52.510;7.342;2023-07-16T12:51:28;9.32;;;3.90;;
26325;SDS011;14032;52.510;7.342;2023-07-16T12:53:53;9.50;;;4.30;;
26325;SDS011;14032;52.510;7.342;2023-07-16T12:56:19;12.32;;;4.47;;
26325;SDS011;14032;52.510;7.342;2023-07-16T12:58:44;10.43;;;4.22;;
26325;SDS011;14032;52.510;7.342;2023-07-16T13:01:10;7.57;;;3.90;;
26325;SDS011;14032;52.510;7.342;2023-07-16T13:03:37;7.53;;;3.88;;
26325;SDS011;14032;52.510;7.342;2023-07-16T13:06:02;7.63;;;3.97;;
26325;SDS011;14032;52.510;7.342;2023-07-16T13:08:29;7.30;;;3.60;;
26325;SDS011;14032;52.510;7.342;2023-07-16T13:10:54;6.53;;;3.67;;
26325;SDS011;14032;52.510;7.342;2023-07-16T13:13:20;7.10;;;3.97;;
26325;SDS011;14032;52.510;7.342;2023-07-16T13:15:46;8.60;;;4.10;;
26325;SDS011;14032;52.510;7.342;2023-07-16T13:18:11;12.48;;;3.90;;
26325;SDS011;14032;52.510;7.342;2023-07-16T13:20:37;8.95;;;3.58;;
26325;SDS011;14032;52.510;7.342;2023-07-16T13:23:03;7.25;;;3.92;;
26325;SDS011;14032;52.510;7.342;2023-07-16T13:25:29;13.70;;;4.25;;
26325;SDS011;14032;52.510;7.342;2023-07-16T13:27:55;7.75;;;3.80;;
26325;SDS011;14032;52.510;7.342;2023-07-16T13:30:21;11.13;;;4.03;;
26325;SDS011;14032;52.510;7.342;2023-07-16T13:32:46;9.25;;;4.00;;
26325;SDS011;14032;52.510;7.342;2023-07-16T13:35:14;7.97;;;3.95;;
26325;SDS011;14032;52.510;7.342;2023-07-16T13:37:41;10.65;;;4.03;;
26325;SDS011;14032;52.510;7.342;2023-07-16T13:40:07;6.70;;;3.47;;
26325;SDS011;14032;52.510;7.342;2023-07-16T13:42:33;8.18;;;3.67;;
26325;SDS011;14032;52.510;7.342;2023-07-16T13:44:59;7.55;;;3.80;;
26325;SDS011;14032;52.510;7.342;2023-07-16T13:47:24;7.15;;;3.55;;
26325;SDS011;14032;52.510;7.342;2023-07-16T13:49:50;9.07;;;3.90;;
26325;SDS011;14032;52.510;7.342;2023-07-16T13:52:16;7.50;;;3.80;;
26325;SDS011;14032;52.510;7.342;2023-07-16T13:54:41;7.20;;;3.78;;
26325;SDS011;14032;52.510;7.342;2023-07-16T13:57:08;7.38;;;3.55;;
26325;SDS011;14032;52.510;7.342;2023-07-16T13:59:33;7.50;;;3.78;;
26325;SDS011;14032;52.510;7.342;2023-07-16T14:02:00;6.97;;;3.17;;
26325;SDS011;14032;52.510;7.342;2023-07-16T14:04:27;7.50;;;3.47;;
26325;SDS011;14032;52.510;7.342;2023-07-16T14:06:53;7.88;;;3.75;;
26325;SDS011;14032;52.510;7.342;2023-07-16T14:09:19;7.82;;;3.40;;
26325;SDS011;14032;52.510;7.342;2023-07-16T14:11:44;6.45;;;3.20;;
26325;SDS011;14032;52.510;7.342;2023-07-16T14:14:13;7.40;;;3.50;;
26325;SDS011;14032;52.510;7.342;2023-07-16T14:16:39;10.43;;;4.15;;
26325;SDS011;14032;52.510;7.342;2023-07-16T14:19:04;5.35;;;2.83;;
26325;SDS011;14032;52.510;7.342;2023-07-16T14:21:30;7.07;;;3.42;;
26325;SDS011;14032;52.510;7.342;2023-07-16T14:23:56;10.63;;;3.33;;
26325;SDS011;14032;52.510;7.342;2023-07-16T14:26:21;9.45;;;3.97;;
26325;SDS011;14032;52.510;7.342;2023-07-16T14:28:47;9.02;;;3.42;;
26325;SDS011;14032;52.510;7.342;2023-07-16T14:31:12;10.85;;;3.63;;
26325;SDS011;14032;52.510;7.342;2023-07-16T14:33:39;7.65;;;3.28;;
26325;SDS011;14032;52.510;7.342;2023-07-16T14:36:04;6.63;;;3.50;;
26325;SDS011;14032;52.510;7.342;2023-07-16T14:38:30;10.32;;;3.25;;
26325;SDS011;14032;52.510;7.342;2023-07-16T14:40:55;8.88;;;3.50;;
26325;SDS011;14032;52.510;7.342;2023-07-16T14:43:21;7.47;;;3.22;;
26325;SDS011;14032;52.510;7.342;2023-07-16T14:45:47;7.63;;;3.28;;
26325;SDS011;14032;52.510;7.342;2023-07-16T14:48:12;7.53;;;3.30;;
26325;SDS011;14032;52.510;7.342;2023-07-16T14:50:38;10.73;;;3.75;;
26325;SDS011;14032;52.510;7.342;2023-07-16T14:53:04;8.07;;;3.95;;
26325;SDS011;14032;52.510;7.342;2023-07-16T14:55:30;10.68;;;3.28;;